createdAt,value
2019-03-24T00:00:53.788Z,7.9
2019-03-24T00:01:55.363Z,7.9
2019-03-24T00:02:56.895Z,7.9
2019-03-24T00:03:58.417Z,7.9
2019-03-24T00:04:59.959Z,7.9
2019-03-24T00:06:01.212Z,7.2
2019-03-24T00:07:02.588Z,7.4
2019-03-24T00:08:04.124Z,7.5
2019-03-24T00:09:05.672Z,7.6
2019-03-24T00:10:07.222Z,7.7
2019-03-24T00:11:08.605Z,7.8
2019-03-24T00:12:10.178Z,7.9
2019-03-24T00:13:11.624Z,7.9
2019-03-24T00:14:13.163Z,7.9
2019-03-24T00:15:25.381Z,7.9
2019-03-24T00:16:27.015Z,7.9
2019-03-24T00:17:28.756Z,7.9
2019-03-24T00:18:30.295Z,7.9
2019-03-24T00:19:31.832Z,7.9
2019-03-24T00:20:33.381Z,7.9
2019-03-24T00:21:34.950Z,7.9
2019-03-24T00:22:36.544Z,7.9
2019-03-24T00:23:37.931Z,7.9
2019-03-24T00:24:39.508Z,7.7
2019-03-24T00:25:40.889Z,7.8
2019-03-24T00:26:42.278Z,7.8
2019-03-24T00:27:43.685Z,7.9
2019-03-24T00:28:45.077Z,7.9
2019-03-24T00:29:46.465Z,7.9
2019-03-24T00:30:48.028Z,7.9
2019-03-24T00:31:49.405Z,7.9
2019-03-24T00:32:50.938Z,7.9
2019-03-24T00:33:52.465Z,7.9
2019-03-24T00:34:53.845Z,7.9
2019-03-24T00:35:55.227Z,7.9
2019-03-24T00:36:56.638Z,7.8
2019-03-24T00:37:58.176Z,7.9
2019-03-24T00:38:59.713Z,7.9
2019-03-24T00:40:01.264Z,7.9
2019-03-24T00:41:02.816Z,7.9
2019-03-24T00:42:04.346Z,7.9
2019-03-24T00:43:05.742Z,7.9
2019-03-24T00:44:06.810Z,7.8
2019-03-24T00:45:08.339Z,7.8
2019-03-24T00:46:09.727Z,7.8
2019-03-24T00:47:11.135Z,7.8
2019-03-24T00:48:12.691Z,7.8
2019-03-24T00:49:14.080Z,7.8
2019-03-24T00:50:15.603Z,7.8
2019-03-24T00:51:16.974Z,7.8
2019-03-24T00:52:18.525Z,7.8
2019-03-24T00:53:19.887Z,7.9
2019-03-24T00:54:21.261Z,7.9
2019-03-24T00:55:22.652Z,7.9
2019-03-24T00:56:24.026Z,7.9
2019-03-24T00:57:25.419Z,7.9
2019-03-24T00:58:26.963Z,7.9
2019-03-24T00:59:28.499Z,7.9
2019-03-24T01:00:29.885Z,7.8
2019-03-24T01:01:31.437Z,7.8
2019-03-24T01:02:32.657Z,7.8
2019-03-24T01:03:34.028Z,7.8
2019-03-24T01:04:35.592Z,7.8
2019-03-24T01:05:36.977Z,7.8
2019-03-24T01:06:38.496Z,7.8
2019-03-24T01:07:39.726Z,7.8
2019-03-24T01:08:41.086Z,7.8
2019-03-24T01:09:42.457Z,7.8
2019-03-24T01:10:43.988Z,7.8
2019-03-24T01:11:45.360Z,7.8
2019-03-24T01:12:46.890Z,7.9
2019-03-24T01:13:48.257Z,7.9
2019-03-24T01:14:49.635Z,7.9
2019-03-24T01:15:51.165Z,7.9
2019-03-24T01:16:52.536Z,7.9
2019-03-24T01:17:53.739Z,7.8
2019-03-24T01:18:55.268Z,7.8
2019-03-24T01:19:56.801Z,7.8
2019-03-24T01:20:58.180Z,7.8
2019-03-24T01:21:59.698Z,7.8
2019-03-24T01:23:01.221Z,7.8
2019-03-24T01:24:02.748Z,7.7
2019-03-24T01:25:04.021Z,7.7
2019-03-24T01:26:05.587Z,7.7
2019-03-24T01:27:06.960Z,7.7
2019-03-24T01:28:08.498Z,7.7
2019-03-24T01:29:09.887Z,7.8
2019-03-24T01:30:11.431Z,7.8
2019-03-24T01:31:12.831Z,7.8
2019-03-24T01:32:14.393Z,7.8
2019-03-24T01:33:15.929Z,7.8
2019-03-24T01:34:17.305Z,7.8
2019-03-24T01:35:18.540Z,7.8
2019-03-24T01:36:19.923Z,7.8
2019-03-24T01:37:21.318Z,7.8
2019-03-24T01:38:22.697Z,7.8
2019-03-24T01:39:24.059Z,7.8
2019-03-24T01:40:25.598Z,7.8
2019-03-24T01:41:26.997Z,7.8
2019-03-24T01:42:28.507Z,7.8
2019-03-24T01:43:29.887Z,7.8
2019-03-24T01:44:31.428Z,7.8
2019-03-24T01:45:32.809Z,7.7
2019-03-24T01:46:34.319Z,7.7
2019-03-24T01:47:35.852Z,7.7
2019-03-24T01:48:37.219Z,7.7
2019-03-24T01:49:38.768Z,7.8
2019-03-24T01:50:40.321Z,7.8
2019-03-24T01:51:41.705Z,7.8
2019-03-24T01:52:43.242Z,7.8
2019-03-24T01:53:44.767Z,7.7
2019-03-24T01:54:46.200Z,7.7
2019-03-24T01:55:47.744Z,7.8
2019-03-24T01:56:49.129Z,7.8
2019-03-24T01:57:50.673Z,7.7
2019-03-24T01:58:52.203Z,7.7
2019-03-24T01:59:53.589Z,7.7
2019-03-24T02:00:54.799Z,7.7
2019-03-24T02:01:56.025Z,7.7
2019-03-24T02:02:57.602Z,7.7
2019-03-24T02:03:58.993Z,7.6
2019-03-24T02:05:00.618Z,7.6
2019-03-24T02:06:02.143Z,7.5
2019-03-24T02:07:03.708Z,7.5
2019-03-24T02:08:04.938Z,7.4
2019-03-24T02:09:06.459Z,7.4
2019-03-24T02:10:07.832Z,7.3
2019-03-24T02:11:09.379Z,7.2
2019-03-24T02:12:10.919Z,7.2
2019-03-24T02:13:12.299Z,7.1
2019-03-24T02:14:13.661Z,7.1
2019-03-24T02:15:15.208Z,7.1
2019-03-24T02:16:16.749Z,7.1
2019-03-24T02:17:18.123Z,7.1
2019-03-24T02:18:19.649Z,7.1
2019-03-24T02:19:21.167Z,7.2
2019-03-24T02:20:22.691Z,7.1
2019-03-24T02:21:23.913Z,7.1
2019-03-24T02:22:25.416Z,7.1
2019-03-24T02:23:26.786Z,7.2
2019-03-24T02:24:28.566Z,7.1
2019-03-24T02:25:30.105Z,7.2
2019-03-24T02:26:31.459Z,7.2
2019-03-24T02:27:32.669Z,7.1
2019-03-24T02:28:34.192Z,7.1
2019-03-24T02:29:35.763Z,7.2
2019-03-24T02:30:37.339Z,7.1
2019-03-24T02:31:38.890Z,7.1
2019-03-24T02:32:40.461Z,7.1
2019-03-24T02:33:42.064Z,7.1
2019-03-24T02:34:43.648Z,7.1
2019-03-24T02:35:45.197Z,7.1
2019-03-24T02:36:46.763Z,7.2
2019-03-24T02:37:48.316Z,7.2
2019-03-24T02:38:49.889Z,7.2
2019-03-24T02:39:51.448Z,7.2
2019-03-24T02:40:52.849Z,7.2
2019-03-24T02:41:54.439Z,7.2
2019-03-24T02:42:56.065Z,7.2
2019-03-24T02:43:57.480Z,7.2
2019-03-24T02:44:59.044Z,7.2
2019-03-24T02:46:00.586Z,7.2
2019-03-24T02:47:02.164Z,7.2
2019-03-24T02:48:03.731Z,7.2
2019-03-24T02:49:05.290Z,7.2
2019-03-24T02:50:06.713Z,7.2
2019-03-24T02:51:08.102Z,7.2
2019-03-24T02:52:09.590Z,7.1
2019-03-24T02:53:11.159Z,7.1
2019-03-24T02:54:12.690Z,7.1
2019-03-24T02:55:14.260Z,7.1
2019-03-24T02:56:15.652Z,7.1
2019-03-24T02:57:17.178Z,7.1
2019-03-24T02:58:18.759Z,7.1
2019-03-24T02:59:20.149Z,7.1
2019-03-24T03:00:21.380Z,7.1
2019-03-24T03:01:22.928Z,7.1
2019-03-24T03:02:24.343Z,7.1
2019-03-24T03:03:25.888Z,7.1
2019-03-24T03:04:27.484Z,7.1
2019-03-24T03:05:29.034Z,7.1
2019-03-24T03:06:30.417Z,7.1
2019-03-24T03:07:31.999Z,7.1
2019-03-24T03:08:33.375Z,7.1
2019-03-24T03:09:34.923Z,7.1
2019-03-24T03:10:36.469Z,7.1
2019-03-24T03:11:37.545Z,7.1
2019-03-24T03:12:39.089Z,7.1
2019-03-24T03:13:40.648Z,7.1
2019-03-24T03:14:42.039Z,7.1
2019-03-24T03:15:43.587Z,7.1
2019-03-24T03:16:45.204Z,7.1
2019-03-24T03:17:46.767Z,7.1
2019-03-24T03:18:48.315Z,7.1
2019-03-24T03:19:49.874Z,7.1
2019-03-24T03:20:51.468Z,7.1
2019-03-24T03:21:52.886Z,7.1
2019-03-24T03:22:54.422Z,7.2
2019-03-24T03:23:55.817Z,7.2
2019-03-24T03:24:57.205Z,7.2
2019-03-24T03:25:58.596Z,7.2
2019-03-24T03:27:00.183Z,7.2
2019-03-24T03:28:01.770Z,7.2
2019-03-24T03:29:03.048Z,7.2
2019-03-24T03:30:04.938Z,7.2
2019-03-24T03:31:06.640Z,7.2
2019-03-24T03:32:08.040Z,7.2
2019-03-24T03:33:09.470Z,7.2
2019-03-24T03:34:11.303Z,7.3
2019-03-24T03:35:13.143Z,7.3
2019-03-24T03:36:14.598Z,7.4
2019-03-24T03:37:16.243Z,7.4
2019-03-24T03:38:17.871Z,7.5
2019-03-24T03:39:19.507Z,7.6
2019-03-24T03:40:20.996Z,7.7
2019-03-24T03:41:22.580Z,7.8
2019-03-24T03:42:24.146Z,7.9
2019-03-24T03:43:25.698Z,7.9
2019-03-24T03:44:27.135Z,7.7
2019-03-24T03:45:28.706Z,7.8
2019-03-24T03:46:30.168Z,7.9
2019-03-24T03:47:31.733Z,7.6
2019-03-24T03:48:33.301Z,7.8
2019-03-24T03:49:34.859Z,7.9
2019-03-24T03:50:36.423Z,7.9
2019-03-24T03:51:37.817Z,7.9
2019-03-24T03:52:39.213Z,7.9
2019-03-24T03:53:40.463Z,7.8
2019-03-24T03:54:42.024Z,7.9
2019-03-24T03:55:43.660Z,7.9
2019-03-24T03:56:45.276Z,7.2
2019-03-24T03:57:46.531Z,7.4
2019-03-24T03:58:48.106Z,7.5
2019-03-24T03:59:49.202Z,7.7
2019-03-24T04:00:50.795Z,7.8
2019-03-24T04:01:52.389Z,7.9
2019-03-24T04:02:53.783Z,7.9
2019-03-24T04:03:55.211Z,7.9
2019-03-24T04:04:56.650Z,7.9
2019-03-24T04:05:58.036Z,7.9
2019-03-24T04:06:59.580Z,7.9
2019-03-24T04:08:00.967Z,7.9
2019-03-24T04:09:02.541Z,7.9
2019-03-24T04:10:04.107Z,7.9
2019-03-24T04:11:05.688Z,7.9
2019-03-24T04:12:07.089Z,7.9
2019-03-24T04:13:08.482Z,7.9
2019-03-24T04:14:09.975Z,7.9
2019-03-24T04:15:11.379Z,7.9
2019-03-24T04:16:12.799Z,7.9
2019-03-24T04:17:14.364Z,7.9
2019-03-24T04:18:15.750Z,7.9
2019-03-24T04:19:17.310Z,7.9
2019-03-24T04:20:18.860Z,7.9
2019-03-24T04:21:20.253Z,7.8
2019-03-24T04:22:21.802Z,7.8
2019-03-24T04:23:23.378Z,7.2
2019-03-24T04:24:24.929Z,7.3
2019-03-24T04:25:26.184Z,7.3
2019-03-24T04:26:27.750Z,7.4
2019-03-24T04:27:29.161Z,7.5
2019-03-24T04:28:30.729Z,7.5
2019-03-24T04:29:32.267Z,7.6
2019-03-24T04:30:33.812Z,7.7
2019-03-24T04:31:35.096Z,7.7
2019-03-24T04:32:36.352Z,7.8
2019-03-24T04:33:37.908Z,7.8
2019-03-24T04:34:39.308Z,7.8
2019-03-24T04:35:40.697Z,7.8
2019-03-24T04:36:42.077Z,7.8
2019-03-24T04:37:43.617Z,7.8
2019-03-24T04:38:45.030Z,7.8
2019-03-24T04:39:46.605Z,7.8
2019-03-24T04:40:48.199Z,7.8
2019-03-24T04:41:49.582Z,7.8
2019-03-24T04:42:51.150Z,7.8
2019-03-24T04:43:52.519Z,7.8
2019-03-24T04:44:53.879Z,7.8
2019-03-24T04:45:55.241Z,7.7
2019-03-24T04:46:56.464Z,7.6
2019-03-24T04:47:57.673Z,7.5
2019-03-24T04:48:58.891Z,7.4
2019-03-24T04:50:00.559Z,7.2
2019-03-24T04:51:01.929Z,7.2
2019-03-24T04:52:03.447Z,7.1
2019-03-24T04:53:04.987Z,7.1
2019-03-24T04:54:06.543Z,7.1
2019-03-24T04:55:07.947Z,7.1
2019-03-24T04:56:09.485Z,7.1
2019-03-24T04:57:11.098Z,7.1
2019-03-24T04:58:12.644Z,7.1
2019-03-24T04:59:14.037Z,7.1
2019-03-24T05:00:15.257Z,7.1
2019-03-24T05:01:16.663Z,7.1
2019-03-24T05:02:17.903Z,7.1
2019-03-24T05:03:19.461Z,7.1
2019-03-24T05:04:21.026Z,7.1
2019-03-24T05:05:22.420Z,7.2
2019-03-24T05:06:23.834Z,7.1
2019-03-24T05:07:25.281Z,7.2
2019-03-24T05:08:26.847Z,7.1
2019-03-24T05:09:28.403Z,7.2
2019-03-24T05:10:29.950Z,7.2
2019-03-24T05:11:46.176Z,7.2
2019-03-24T05:12:47.552Z,7.2
2019-03-24T05:13:49.081Z,7.2
2019-03-24T05:14:50.634Z,7.2
2019-03-24T05:15:52.203Z,7.2
2019-03-24T05:16:53.577Z,7.2
2019-03-24T05:17:54.959Z,7.2
2019-03-24T05:18:56.338Z,7.2
2019-03-24T05:19:57.875Z,7.2
2019-03-24T05:20:59.398Z,7.2
2019-03-24T05:22:00.941Z,7.2
2019-03-24T05:23:02.317Z,7.3
2019-03-24T05:24:03.687Z,7.3
2019-03-24T05:25:05.213Z,7.3
2019-03-24T05:26:06.741Z,7.3
2019-03-24T05:27:07.947Z,7.4
2019-03-24T05:28:09.484Z,7.4
2019-03-24T05:29:11.021Z,7.5
2019-03-24T05:30:12.581Z,7.5
2019-03-24T05:31:14.129Z,7.6
2019-03-24T05:32:15.686Z,7.8
2019-03-24T05:33:17.227Z,7.9
2019-03-24T05:34:18.753Z,7.9
2019-03-24T05:35:19.983Z,7.7
2019-03-24T05:36:21.517Z,7.9
2019-03-24T05:37:23.049Z,7.9
2019-03-24T05:38:24.594Z,7.8
2019-03-24T05:39:26.138Z,7.9
2019-03-24T05:40:27.511Z,7.9
2019-03-24T05:41:29.052Z,7.9
2019-03-24T05:42:30.423Z,7.9
2019-03-24T05:43:31.947Z,7.9
2019-03-24T05:44:33.326Z,7.9
2019-03-24T05:45:34.859Z,7.9
2019-03-24T05:46:36.392Z,7.9
2019-03-24T05:47:38.799Z,7.9
2019-03-24T05:48:40.308Z,7.9
2019-03-24T05:49:41.717Z,7.9
2019-03-24T05:50:43.110Z,7.9
2019-03-24T05:51:44.649Z,7.2
2019-03-24T05:52:46.197Z,7.3
2019-03-24T05:53:47.606Z,7.4
2019-03-24T05:54:49.127Z,7.5
2019-03-24T05:55:50.668Z,7.5
2019-03-24T05:56:52.229Z,7.6
2019-03-24T05:57:53.789Z,7.6
2019-03-24T05:58:55.169Z,7.7
2019-03-24T05:59:56.541Z,7.7
2019-03-24T06:00:57.912Z,7.8
2019-03-24T06:01:59.285Z,7.8
2019-03-24T06:03:00.820Z,7.9
2019-03-24T06:04:03.411Z,7.9
2019-03-24T06:05:04.848Z,7.9
2019-03-24T06:06:06.681Z,7.9
2019-03-24T06:07:08.658Z,7.9
2019-03-24T06:08:10.193Z,7.9
2019-03-24T06:09:11.915Z,7.9
2019-03-24T06:10:13.679Z,7.9
2019-03-24T06:11:14.763Z,7.9
2019-03-24T06:12:16.295Z,7.8
2019-03-24T06:13:18.350Z,7.9
2019-03-24T06:14:19.728Z,7.9
2019-03-24T06:15:21.253Z,7.9
2019-03-24T06:16:23.139Z,7.9
2019-03-24T06:17:24.613Z,7.9
2019-03-24T06:18:26.021Z,7.9
2019-03-24T06:19:27.905Z,7.9
2019-03-24T06:20:29.442Z,7.9
2019-03-24T06:21:31.742Z,7.8
2019-03-24T06:22:33.788Z,7.8
2019-03-24T06:23:35.176Z,7.8
2019-03-24T06:24:36.981Z,7.8
2019-03-24T06:25:38.799Z,7.8
2019-03-24T06:26:40.452Z,7.8
2019-03-24T06:27:42.039Z,7.9
2019-03-24T06:28:44.172Z,7.8
2019-03-24T06:29:45.570Z,7.9
2019-03-24T06:30:47.249Z,7.9
2019-03-24T06:31:49.288Z,7.8
2019-03-24T06:32:50.687Z,7.8
2019-03-24T06:33:52.501Z,7.7
2019-03-24T06:34:54.155Z,7.7
2019-03-24T06:35:55.723Z,7.6
2019-03-24T06:36:57.514Z,7.5
2019-03-24T06:37:59.356Z,7.4
2019-03-24T06:39:00.747Z,7.3
2019-03-24T06:40:02.049Z,7.2
2019-03-24T06:41:04.142Z,7.2
2019-03-24T06:42:05.413Z,7.2
2019-03-24T06:43:07.959Z,7.2
2019-03-24T06:44:09.511Z,7.1
2019-03-24T06:45:11.055Z,7.1
2019-03-24T06:46:15.348Z,7.2
2019-03-24T06:47:18.670Z,7.1
2019-03-24T06:48:21.736Z,7.1
2019-03-24T06:49:23.797Z,7.2
2019-03-24T06:50:26.088Z,7.1
2019-03-24T06:51:27.639Z,7.1
2019-03-24T06:52:28.819Z,7.1
2019-03-24T06:53:31.232Z,7.1
2019-03-24T06:54:32.612Z,7.1
2019-03-24T06:55:34.638Z,7.1
2019-03-24T06:56:36.020Z,7.1
2019-03-24T06:57:37.679Z,7.1
2019-03-24T06:58:39.347Z,7.1
2019-03-24T06:59:41.214Z,7.1
2019-03-24T07:00:42.462Z,7.2
2019-03-24T07:01:44.652Z,7.1
2019-03-24T07:02:46.842Z,7.2
2019-03-24T07:03:48.293Z,7.2
2019-03-24T07:04:50.645Z,7.2
2019-03-24T07:05:53.290Z,7.2
2019-03-24T07:06:55.196Z,7.2
2019-03-24T07:07:56.845Z,7.2
2019-03-24T07:08:58.594Z,7.2
2019-03-24T07:10:01.015Z,7.2
2019-03-24T07:11:03.163Z,7.2
2019-03-24T07:12:04.853Z,7.2
2019-03-24T07:13:06.418Z,7.2
2019-03-24T07:14:07.796Z,7.2
2019-03-24T07:15:10.440Z,7.2
2019-03-24T07:16:11.842Z,7.2
2019-03-24T07:17:15.028Z,7.2
2019-03-24T07:18:16.553Z,7.2
2019-03-24T07:19:18.328Z,7.2
2019-03-24T07:20:19.994Z,7.3
2019-03-24T07:21:21.529Z,7.3
2019-03-24T07:22:24.505Z,7.3
2019-03-24T07:23:26.504Z,7.4
2019-03-24T07:24:29.343Z,7.5
2019-03-24T07:25:31.552Z,7.6
2019-03-24T07:26:33.143Z,7.7
2019-03-24T07:27:34.839Z,7.8
2019-03-24T07:28:36.967Z,7.9
2019-03-24T07:29:41.092Z,7.9
2019-03-24T07:30:43.159Z,7.9
2019-03-24T07:31:45.140Z,7.9
2019-03-24T07:32:47.247Z,7.9
2019-03-24T07:33:49.084Z,7.9
2019-03-24T07:34:50.447Z,7.9
2019-03-24T07:35:52.584Z,7.9
2019-03-24T07:36:54.335Z,7.9
2019-03-24T07:37:56.290Z,7.8
2019-03-24T07:38:58.600Z,7.9
2019-03-24T07:40:00.809Z,7.9
2019-03-24T07:41:02.355Z,7.9
2019-03-24T07:42:06.263Z,7.9
2019-03-24T07:43:07.837Z,7.6
2019-03-24T07:44:11.301Z,7.8
2019-03-24T07:45:13.187Z,7.9
2019-03-24T07:46:14.747Z,7.9
2019-03-24T07:47:16.339Z,7.9
2019-03-24T07:48:20.932Z,7.8
2019-03-24T07:49:22.323Z,7.8
2019-03-24T07:50:23.874Z,7.8
2019-03-24T07:51:25.634Z,7.7
2019-03-24T07:52:27.484Z,7.6
2019-03-24T07:53:28.701Z,7.6
2019-03-24T07:54:31.395Z,7.5
2019-03-24T07:55:32.832Z,7.4
2019-03-24T07:56:34.669Z,7.3
2019-03-24T07:57:36.540Z,7.3
2019-03-24T07:58:38.431Z,7.2
2019-03-24T07:59:40.719Z,7.2
2019-03-24T08:00:42.422Z,7.2
2019-03-24T08:01:43.827Z,7.2
2019-03-24T08:02:52.779Z,7.2
2019-03-24T08:03:54.832Z,7.2
2019-03-24T08:04:56.237Z,7.2
2019-03-24T08:05:57.672Z,7.2
2019-03-24T08:06:59.657Z,7.2
2019-03-24T08:08:01.512Z,7.2
2019-03-24T08:09:03.459Z,7.2
2019-03-24T08:10:05.213Z,7.3
2019-03-24T08:11:06.755Z,7.3
2019-03-24T08:12:09.373Z,7.3
2019-03-24T08:13:11.157Z,7.4
2019-03-24T08:14:12.801Z,7.4
2019-03-24T08:15:14.047Z,7.4
2019-03-24T08:16:15.659Z,7.3
2019-03-24T08:17:17.469Z,7.3
2019-03-24T08:18:30.549Z,7.2
2019-03-24T08:19:32.128Z,7.2
2019-03-24T08:20:33.687Z,7.2
2019-03-24T08:21:35.076Z,7.2
2019-03-24T08:22:36.492Z,7.1
2019-03-24T08:23:38.295Z,7.1
2019-03-24T08:24:40.490Z,7.1
2019-03-24T08:25:42.071Z,7.1
2019-03-24T08:26:44.831Z,7.1
2019-03-24T08:27:46.491Z,7.1
2019-03-24T08:28:47.914Z,7.1
2019-03-24T08:29:50.039Z,7.1
2019-03-24T08:30:51.594Z,7.1
2019-03-24T08:31:53.612Z,7.1
2019-03-24T08:32:55.177Z,7.1
2019-03-24T08:33:56.411Z,7.1
2019-03-24T08:34:58.067Z,7.1
2019-03-24T08:35:59.562Z,7.1
2019-03-24T08:37:00.973Z,7.1
2019-03-24T08:38:02.705Z,7.1
2019-03-24T08:39:04.667Z,7.1
2019-03-24T08:40:06.762Z,7.2
2019-03-24T08:41:08.695Z,7.2
2019-03-24T08:42:10.623Z,7.2
2019-03-24T08:43:12.883Z,7.2
2019-03-24T08:44:14.763Z,7.2
2019-03-24T08:45:16.706Z,7.2
2019-03-24T08:46:19.470Z,7.2
2019-03-24T08:47:21.777Z,7.2
2019-03-24T08:48:24.400Z,7.2
2019-03-24T08:49:26.623Z,7.2
2019-03-24T08:50:29.834Z,7.2
2019-03-24T08:51:32.079Z,7.2
2019-03-24T08:52:34.023Z,7.2
2019-03-24T08:53:35.791Z,7.3
2019-03-24T08:54:37.455Z,7.3
2019-03-24T08:55:39.512Z,7.4
2019-03-24T08:56:41.277Z,7.5
2019-03-24T08:57:43.345Z,7.6
2019-03-24T08:58:45.878Z,7.7
2019-03-24T08:59:48.656Z,7.8
2019-03-24T09:00:50.595Z,7.9
2019-03-24T09:01:53.339Z,7.9
2019-03-24T09:02:56.847Z,7.9
2019-03-24T09:03:58.708Z,7.9
2019-03-24T09:05:01.368Z,7.9
2019-03-24T09:06:04.663Z,7.9
2019-03-24T09:07:06.997Z,7.9
2019-03-24T09:08:09.390Z,7.9
2019-03-24T09:09:11.562Z,7.9
2019-03-24T09:10:13.199Z,7.9
2019-03-24T09:11:14.965Z,7.9
2019-03-24T09:12:17.614Z,7.9
2019-03-24T09:13:19.767Z,7.9
2019-03-24T09:14:22.040Z,7.9
2019-03-24T09:15:24.437Z,7.9
2019-03-24T09:16:26.008Z,7.9
2019-03-24T09:17:28.516Z,7.9
2019-03-24T09:18:30.896Z,7.9
2019-03-24T09:19:32.615Z,7.9
2019-03-24T09:20:44.273Z,7.9
2019-03-24T09:21:46.355Z,7.9
2019-03-24T09:22:49.147Z,7.9
2019-03-24T09:23:51.486Z,7.9
2019-03-24T09:24:54.355Z,7.9
2019-03-24T09:25:56.195Z,7.9
2019-03-24T09:26:57.898Z,7.6
2019-03-24T09:27:59.462Z,7.7
2019-03-24T09:29:01.267Z,7.9
2019-03-24T09:30:02.729Z,7.9
2019-03-24T09:31:04.893Z,7.9
2019-03-24T09:32:06.909Z,7.9
2019-03-24T09:33:08.947Z,7.8
2019-03-24T09:34:11.013Z,7.9
2019-03-24T09:35:13.098Z,7.9
2019-03-24T09:36:15.087Z,7.9
2019-03-24T09:37:17.028Z,7.6
2019-03-24T09:38:19.496Z,7.8
2019-03-24T09:39:21.178Z,7.2
2019-03-24T09:40:23.674Z,7.4
2019-03-24T09:41:25.678Z,7.6
2019-03-24T09:42:27.687Z,7.7
2019-03-24T09:43:30.312Z,7.9
2019-03-24T09:44:33.014Z,7.9
2019-03-24T09:45:35.913Z,7.8
2019-03-24T09:46:39.308Z,7.9
2019-03-24T09:47:42.234Z,7.9
2019-03-24T09:48:46.647Z,7.9
2019-03-24T09:49:48.359Z,7.8
2019-03-24T09:50:50.560Z,7.8
2019-03-24T09:51:52.395Z,7.6
2019-03-24T09:52:54.933Z,7.5
2019-03-24T09:53:56.602Z,7.3
2019-03-24T09:54:59.056Z,7.1
2019-03-24T09:56:00.979Z,7.1
2019-03-24T09:57:03.060Z,7.1
2019-03-24T09:58:05.577Z,7.1
2019-03-24T09:59:08.422Z,7.1
2019-03-24T10:00:10.677Z,7.1
2019-03-24T10:01:12.619Z,7.1
2019-03-24T10:02:14.575Z,7.1
2019-03-24T10:03:16.983Z,7.1
2019-03-24T10:04:19.480Z,7.1
2019-03-24T10:05:21.185Z,7.1
2019-03-24T10:06:22.998Z,7.1
2019-03-24T10:07:24.932Z,7.1
2019-03-24T10:08:26.896Z,7.1
2019-03-24T10:09:28.921Z,7.1
2019-03-24T10:10:31.404Z,7.1
2019-03-24T10:11:33.033Z,7.1
2019-03-24T10:12:35.765Z,7.2
2019-03-24T10:13:37.667Z,7.2
2019-03-24T10:14:39.665Z,7.2
2019-03-24T10:15:41.359Z,7.2
2019-03-24T10:16:43.800Z,7.2
2019-03-24T10:17:46.197Z,7.1
2019-03-24T10:18:48.373Z,7.2
2019-03-24T10:19:50.732Z,7.2
2019-03-24T10:20:52.782Z,7.2
2019-03-24T10:21:54.711Z,7.2
2019-03-24T10:22:56.702Z,7.1
2019-03-24T10:23:59.336Z,7.2
2019-03-24T10:25:01.934Z,7.1
2019-03-24T10:26:03.745Z,7.2
2019-03-24T10:27:05.507Z,7.2
2019-03-24T10:28:07.413Z,7.2
2019-03-24T10:29:10.221Z,7.2
2019-03-24T10:30:11.876Z,7.2
2019-03-24T10:31:14.937Z,7.2
2019-03-24T10:32:16.997Z,7.2
2019-03-24T10:33:18.841Z,7.2
2019-03-24T10:34:21.039Z,7.2
2019-03-24T10:35:23.027Z,7.2
2019-03-24T10:36:25.682Z,7.2
2019-03-24T10:37:27.371Z,7.2
2019-03-24T10:38:29.711Z,7.2
2019-03-24T10:39:33.851Z,7.2
2019-03-24T10:40:36.546Z,7.3
2019-03-24T10:41:39.241Z,7.4
2019-03-24T10:42:41.207Z,7.5
2019-03-24T10:43:42.737Z,7.6
2019-03-24T10:44:44.100Z,7.7
2019-03-24T10:45:46.867Z,7.8
2019-03-24T10:46:48.808Z,7.9
2019-03-24T10:47:50.701Z,7.9
2019-03-24T10:48:52.771Z,7.9
2019-03-24T10:49:56.295Z,7.9
2019-03-24T10:50:59.657Z,7.7
2019-03-24T10:52:02.789Z,7.8
2019-03-24T10:53:04.735Z,7.9
2019-03-24T10:54:06.827Z,7.9
2019-03-24T10:55:08.408Z,7.9
2019-03-24T10:56:10.068Z,7.9
2019-03-24T10:57:11.803Z,7.9
2019-03-24T10:58:13.543Z,7.9
2019-03-24T10:59:16.177Z,7.9
2019-03-24T11:00:17.977Z,7.9
2019-03-24T11:01:20.564Z,7.9
2019-03-24T11:02:22.139Z,7.9
2019-03-24T11:03:23.570Z,7.9
2019-03-24T11:04:25.058Z,7.9
2019-03-24T11:05:26.888Z,7.9
2019-03-24T11:06:28.732Z,7.9
2019-03-24T11:07:31.517Z,7.9
2019-03-24T11:08:33.408Z,7.9
2019-03-24T11:09:35.707Z,7.9
2019-03-24T11:10:37.690Z,7.9
2019-03-24T11:11:39.632Z,7.9
2019-03-24T11:12:41.166Z,7.9
2019-03-24T11:13:42.809Z,7.9
2019-03-24T11:14:44.823Z,7.9
2019-03-24T11:15:46.207Z,7.9
2019-03-24T11:16:47.769Z,7.9
2019-03-24T11:17:50.611Z,7.9
2019-03-24T11:18:52.141Z,7.9
2019-03-24T11:19:53.888Z,7.9
2019-03-24T11:20:55.592Z,7.9
2019-03-24T11:21:57.152Z,7.9
2019-03-24T11:22:58.561Z,7.9
2019-03-24T11:24:00.258Z,7.9
2019-03-24T11:25:01.937Z,7.7
2019-03-24T11:26:04.081Z,7.8
2019-03-24T11:27:05.898Z,7.9
2019-03-24T11:28:07.452Z,7.9
2019-03-24T11:29:09.050Z,7.8
2019-03-24T11:30:11.427Z,7.8
2019-03-24T11:31:13.342Z,7.8
2019-03-24T11:32:15.364Z,7.7
2019-03-24T11:33:16.940Z,7.6
2019-03-24T11:34:18.693Z,7.5
2019-03-24T11:35:20.838Z,7.4
2019-03-24T11:36:22.402Z,7.4
2019-03-24T11:37:24.107Z,7.3
2019-03-24T11:38:26.209Z,7.2
2019-03-24T11:39:27.443Z,7.2
2019-03-24T11:40:29.167Z,7.2
2019-03-24T11:41:31.223Z,7.2
2019-03-24T11:42:32.629Z,7.2
2019-03-24T11:43:35.111Z,7.2
2019-03-24T11:44:36.989Z,7.2
2019-03-24T11:45:38.425Z,7.2
2019-03-24T11:46:40.328Z,7.1
2019-03-24T11:47:41.871Z,7.1
2019-03-24T11:48:43.441Z,7.1
2019-03-24T11:49:50.424Z,7.2
2019-03-24T11:50:52.256Z,7.1
2019-03-24T11:51:53.816Z,7.2
2019-03-24T11:52:55.039Z,7.1
2019-03-24T11:53:56.508Z,7.1
2019-03-24T11:54:58.076Z,7.1
2019-03-24T11:56:00.115Z,7.1
2019-03-24T11:57:01.482Z,7.1
2019-03-24T11:58:07.781Z,7.1
2019-03-24T11:59:10.001Z,7.2
2019-03-24T12:00:11.680Z,7.2
2019-03-24T12:01:13.245Z,7.2
2019-03-24T12:02:15.115Z,7.2
2019-03-24T12:03:17.286Z,7.2
2019-03-24T12:04:18.841Z,7.2
2019-03-24T12:05:20.782Z,7.2
2019-03-24T12:06:22.734Z,7.2
2019-03-24T12:07:24.131Z,7.2
2019-03-24T12:08:25.794Z,7.2
2019-03-24T12:09:28.042Z,7.2
2019-03-24T12:10:29.429Z,7.2
2019-03-24T12:11:31.329Z,7.2
2019-03-24T12:12:33.008Z,7.2
2019-03-24T12:13:34.538Z,7.2
2019-03-24T12:14:36.710Z,7.2
2019-03-24T12:15:38.177Z,7.2
2019-03-24T12:16:39.742Z,7.2
2019-03-24T12:17:41.138Z,7.2
2019-03-24T12:18:42.531Z,7.2
2019-03-24T12:19:44.136Z,7.3
2019-03-24T12:20:45.695Z,7.3
2019-03-24T12:21:47.266Z,7.3
2019-03-24T12:22:48.679Z,7.3
2019-03-24T12:23:50.083Z,7.4
2019-03-24T12:24:51.514Z,7.4
2019-03-24T12:25:53.114Z,7.4
2019-03-24T12:26:54.693Z,7.5
2019-03-24T12:27:55.939Z,7.5
2019-03-24T12:28:57.495Z,7.6
2019-03-24T12:29:59.057Z,7.6
2019-03-24T12:31:00.446Z,7.7
2019-03-24T12:32:01.858Z,7.8
2019-03-24T12:33:03.419Z,7.9
2019-03-24T12:34:05.022Z,7.9
2019-03-24T12:35:06.541Z,7.9
2019-03-24T12:36:07.922Z,7.9
2019-03-24T12:37:09.497Z,7.9
2019-03-24T12:38:11.099Z,7.9
2019-03-24T12:39:12.219Z,7.9
2019-03-24T12:40:13.825Z,7.9
2019-03-24T12:41:15.388Z,7.9
2019-03-24T12:42:16.940Z,7.9
2019-03-24T12:43:21.203Z,7.9
2019-03-24T12:44:22.656Z,7.9
2019-03-24T12:45:24.213Z,7.9
2019-03-24T12:46:25.609Z,7.9
2019-03-24T12:47:27.049Z,7.9
2019-03-24T12:48:29.320Z,7.9
2019-03-24T12:49:30.727Z,7.9
2019-03-24T12:50:37.875Z,7.9
2019-03-24T12:51:39.324Z,7.9
2019-03-24T12:52:40.798Z,7.9
2019-03-24T12:53:41.901Z,7.9
2019-03-24T12:54:43.494Z,7.9
2019-03-24T12:55:45.056Z,7.9
2019-03-24T12:56:46.451Z,7.9
2019-03-24T12:57:47.853Z,7.9
2019-03-24T12:58:49.245Z,7.9
2019-03-24T12:59:50.802Z,7.9
2019-03-24T13:00:52.059Z,7.9
2019-03-24T13:01:54.516Z,7.9
2019-03-24T13:02:55.760Z,7.9
2019-03-24T13:03:57.162Z,7.9
2019-03-24T13:04:58.588Z,7.8
2019-03-24T13:06:00.154Z,7.9
2019-03-24T13:07:01.589Z,7.3
2019-03-24T13:08:05.590Z,7.5
2019-03-24T13:09:07.131Z,7.6
2019-03-24T13:10:08.683Z,7.7
2019-03-24T13:11:10.251Z,7.7
2019-03-24T13:12:11.808Z,7.7
2019-03-24T13:13:13.065Z,7.6
2019-03-24T13:14:14.488Z,7.6
2019-03-24T13:15:15.889Z,7.5
2019-03-24T13:16:17.669Z,7.4
2019-03-24T13:17:19.230Z,7.3
2019-03-24T13:18:20.790Z,7.2
2019-03-24T13:19:22.350Z,7.2
2019-03-24T13:20:40.011Z,7.1
2019-03-24T13:21:41.400Z,7.1
2019-03-24T13:22:43.010Z,7.1
2019-03-24T13:23:44.418Z,7.1
2019-03-24T13:24:45.505Z,7.1
2019-03-24T13:25:46.950Z,7.2
2019-03-24T13:26:48.529Z,7.1
2019-03-24T13:27:49.977Z,7.1
2019-03-24T13:28:51.539Z,7.1
2019-03-24T13:29:53.109Z,7.1
2019-03-24T13:30:54.689Z,7.2
2019-03-24T13:31:55.919Z,7.2
2019-03-24T13:32:57.316Z,7.1
2019-03-24T13:33:58.795Z,7.2
2019-03-24T13:35:00.374Z,7.2
2019-03-24T13:36:01.632Z,7.2
2019-03-24T13:37:05.690Z,7.2
2019-03-24T13:38:06.916Z,7.2
2019-03-24T13:39:08.490Z,7.2
2019-03-24T13:40:09.922Z,7.2
2019-03-24T13:41:11.175Z,7.2
2019-03-24T13:42:12.551Z,7.2
2019-03-24T13:43:14.117Z,7.2
2019-03-24T13:44:15.504Z,7.2
2019-03-24T13:45:16.965Z,7.2
2019-03-24T13:46:18.548Z,7.2
2019-03-24T13:47:20.111Z,7.2
2019-03-24T13:48:21.344Z,7.2
2019-03-24T13:49:22.602Z,7.3
2019-03-24T13:50:33.068Z,7.3
2019-03-24T13:51:34.459Z,7.3
2019-03-24T13:52:35.851Z,7.3
2019-03-24T13:53:37.447Z,7.3
2019-03-24T13:54:39.048Z,7.3
2019-03-24T13:55:40.678Z,7.3
2019-03-24T13:56:42.078Z,7.3
2019-03-24T13:57:43.489Z,7.3
2019-03-24T13:58:45.039Z,7.3
2019-03-24T13:59:46.625Z,7.4
2019-03-24T14:00:48.210Z,7.4
2019-03-24T14:01:49.806Z,7.5
2019-03-24T14:02:51.358Z,7.5
2019-03-24T14:03:52.932Z,7.6
2019-03-24T14:04:54.473Z,7.7
2019-03-24T14:05:55.912Z,7.8
2019-03-24T14:06:57.467Z,7.8
2019-03-24T14:07:59.049Z,7.9
2019-03-24T14:09:00.465Z,7.9
2019-03-24T14:10:16.777Z,7.9
2019-03-24T14:11:18.408Z,7.9
2019-03-24T14:12:19.796Z,7.9